createdAt,value
2023-03-25T02:07:10.740Z,23.05
2023-03-25T02:11:10.701Z,23.05
2023-03-25T02:15:10.697Z,23.05
2023-03-25T02:19:10.643Z,23.04
2023-03-25T02:23:10.795Z,23.05
2023-03-25T02:27:10.981Z,23.04
2023-03-25T02:31:11.183Z,23.04
2023-03-25T02:35:11.317Z,23.04
2023-03-25T02:39:11.588Z,23.04
2023-03-25T02:43:11.668Z,23.04
2023-03-25T02:47:11.878Z,23.04
2023-03-25T02:51:12.067Z,23.03
2023-03-25T02:55:12.265Z,23.04
2023-03-25T02:59:12.487Z,23.03
2023-03-25T03:03:12.839Z,23.02
2023-03-25T03:07:12.893Z,23.03
2023-03-25T03:11:13.141Z,23.03
2023-03-25T03:15:13.266Z,23.03
2023-03-25T03:27:13.622Z,23.02
2023-03-25T03:31:13.644Z,23.02
2023-03-25T03:39:13.562Z,23.02
2023-03-25T03:43:13.738Z,23.01
2023-03-25T03:47:13.942Z,23.02
2023-03-25T03:51:14.117Z,23.01
2023-03-25T03:55:14.302Z,23.01
2023-03-25T03:59:14.521Z,23.01
2023-03-25T17:27:25.311Z,23.83
2023-03-25T17:31:25.506Z,23.81
2023-03-25T17:35:25.678Z,23.78
2023-03-25T17:39:25.783Z,23.76
2023-03-25T17:43:25.956Z,23.74
2023-03-25T17:47:26.148Z,23.72
2023-03-25T17:51:26.318Z,23.70
2023-03-25T17:55:26.501Z,23.68
2023-03-25T17:59:26.691Z,23.67
2023-03-25T18:03:26.881Z,23.65
2023-03-25T18:07:27.054Z,23.64
2023-03-25T18:11:27.249Z,23.62
2023-03-25T18:55:28.041Z,23.50
2023-03-25T18:59:27.998Z,23.50
2023-03-25T19:03:27.971Z,23.48
2023-03-25T19:07:27.913Z,23.47
2023-03-25T19:11:27.886Z,23.45
2023-03-25T19:15:27.870Z,23.44
2023-03-25T19:19:28.074Z,23.43
2023-03-25T19:23:28.270Z,23.42
2023-03-25T19:27:28.473Z,23.41
2023-03-25T19:31:28.778Z,23.40
2023-03-25T19:35:28.891Z,23.38
2023-03-25T19:39:29.099Z,23.37
2023-03-25T19:43:29.332Z,23.37
2023-03-25T19:47:29.523Z,23.36
2023-03-25T19:51:29.736Z,23.36
2023-03-25T19:55:29.933Z,23.35
2023-03-25T19:59:30.140Z,23.34
2023-03-25T20:03:30.436Z,23.32
2023-03-25T20:07:30.342Z,23.32
2023-03-25T20:11:30.307Z,23.31
2023-03-25T20:15:30.256Z,23.31
2023-03-25T20:19:30.236Z,23.30
2023-03-25T20:23:30.207Z,23.29
2023-03-25T20:27:30.154Z,23.28
2023-03-25T20:31:30.189Z,23.28
2023-03-25T20:35:30.115Z,23.28
2023-03-25T20:39:30.052Z,23.27
2023-03-25T20:43:30.042Z,23.27
2023-03-25T20:47:30.110Z,23.26
2023-03-25T20:51:30.044Z,23.26
2023-03-25T20:55:30.022Z,23.25
2023-03-25T20:59:29.974Z,23.24
2023-03-25T21:03:29.942Z,23.24
2023-03-25T21:07:29.906Z,23.23
2023-03-25T21:11:29.997Z,23.23
2023-03-25T21:15:29.846Z,23.21
2023-03-25T21:19:29.798Z,23.21
2023-03-25T21:23:29.747Z,23.20
2023-03-25T21:27:39.041Z,23.20
2023-03-25T21:31:30.751Z,23.19
2023-03-25T21:35:29.680Z,23.20
2023-03-25T21:39:29.862Z,23.19
2023-03-25T21:43:30.072Z,23.19
2023-03-25T21:47:30.333Z,23.18
2023-03-25T21:51:30.700Z,23.17
2023-03-25T21:55:30.462Z,23.17
2023-03-25T21:59:30.413Z,23.17
2023-03-25T22:03:30.558Z,23.16
2023-03-25T22:07:30.352Z,23.15
2023-03-25T22:11:30.299Z,23.15
2023-03-25T22:15:30.251Z,23.14
2023-03-25T22:19:30.235Z,23.14
2023-03-25T22:23:30.196Z,23.15
2023-03-25T22:27:30.159Z,23.14
2023-03-25T22:31:30.104Z,23.14
2023-03-25T22:35:30.205Z,23.13
2023-03-25T22:39:30.194Z,23.13
2023-03-25T22:43:30.253Z,23.12
2023-03-25T22:47:30.391Z,23.12
2023-03-25T22:51:30.464Z,23.12
2023-03-25T22:55:30.566Z,23.11
2023-03-25T22:59:30.639Z,23.11
2023-03-25T23:03:30.764Z,23.10
2023-03-25T23:07:30.693Z,23.11
2023-03-25T23:11:30.760Z,23.11
2023-03-25T23:15:30.752Z,23.11
2023-03-25T23:19:30.797Z,23.09
2023-03-25T23:23:30.868Z,23.09
2023-03-25T23:27:30.876Z,23.10
2023-03-25T23:31:30.910Z,23.09
2023-03-25T23:35:30.929Z,23.08
2023-03-25T23:39:30.897Z,23.09
2023-03-25T23:43:30.929Z,23.08
2023-03-25T23:47:30.942Z,23.08
2023-03-25T23:51:30.932Z,23.09
2023-03-25T23:55:30.969Z,23.08
2023-03-25T23:59:30.937Z,23.07
